createdAt,value
2018-12-21T00:01:45.462Z,0.70
2018-12-21T00:04:19.079Z,0.67
2018-12-21T00:06:52.952Z,0.60
2018-12-21T00:09:26.841Z,0.50
2018-12-21T00:12:00.288Z,0.97
2018-12-21T00:14:33.450Z,0.87
2018-12-21T00:17:07.413Z,0.53
2018-12-21T00:19:41.408Z,0.80
2018-12-21T00:22:14.589Z,0.70
2018-12-21T00:24:48.574Z,1.07
2018-12-21T00:27:22.625Z,0.70
2018-12-21T00:29:56.433Z,0.80
2018-12-21T00:32:36.522Z,0.80
2018-12-21T00:35:15.174Z,0.87
2018-12-21T00:37:54.232Z,0.60
2018-12-21T00:40:33.030Z,0.87
2018-12-21T00:43:09.016Z,0.67
2018-12-21T00:45:44.474Z,1.00
2018-12-21T00:48:17.697Z,0.90
2018-12-21T00:50:51.745Z,0.83
2018-12-21T00:53:25.564Z,0.90
2018-12-21T00:55:59.636Z,0.83
2018-12-21T00:58:33.482Z,1.00
2018-12-21T01:01:06.833Z,1.30
2018-12-21T01:03:40.644Z,0.70
2018-12-21T01:06:14.685Z,0.53
2018-12-21T01:08:48.628Z,0.80
2018-12-21T01:11:21.740Z,0.70
2018-12-21T01:13:55.793Z,0.70
2018-12-21T01:16:29.047Z,0.63
2018-12-21T01:19:00.081Z,0.80
2018-12-21T01:21:38.794Z,0.70
2018-12-21T01:24:09.427Z,0.80
2018-12-21T01:26:42.598Z,1.00
2018-12-21T01:29:16.581Z,0.70
2018-12-21T01:31:50.665Z,1.00
2018-12-21T01:34:23.924Z,0.80
2018-12-21T01:36:57.053Z,1.00
2018-12-21T01:39:30.185Z,0.83
2018-12-21T01:42:03.401Z,0.70
2018-12-21T01:44:37.336Z,0.60
2018-12-21T01:47:10.506Z,0.90
2018-12-21T01:49:44.332Z,0.83
2018-12-21T01:52:18.299Z,0.70
2018-12-21T01:54:51.433Z,0.67
2018-12-21T01:57:25.393Z,0.90
2018-12-21T01:59:59.359Z,0.70
2018-12-21T02:02:33.261Z,0.63
2018-12-21T02:05:06.595Z,0.53
2018-12-21T02:07:39.708Z,0.70
2018-12-21T02:10:12.870Z,0.70
2018-12-21T02:12:46.811Z,0.80
2018-12-21T02:15:20.871Z,0.60
2018-12-21T02:17:54.830Z,0.83
2018-12-21T02:20:29.095Z,0.80
2018-12-21T02:23:02.817Z,0.70
2018-12-21T02:25:36.000Z,0.63
2018-12-21T02:28:09.113Z,0.67
2018-12-21T02:30:43.141Z,0.73
2018-12-21T02:33:16.265Z,0.80
2018-12-21T02:35:50.298Z,0.73
2018-12-21T02:38:23.521Z,0.60
2018-12-21T02:40:56.692Z,0.70
2018-12-21T02:43:30.665Z,0.80
2018-12-21T02:46:04.641Z,0.63
2018-12-21T02:48:38.700Z,0.93
2018-12-21T02:51:12.664Z,0.87
2018-12-21T02:53:45.976Z,0.70
2018-12-21T02:56:19.994Z,0.70
2018-12-21T02:58:53.965Z,0.70
2018-12-21T03:01:33.916Z,1.10
2018-12-21T03:34:58.095Z,0.70
2018-12-21T03:37:31.279Z,0.70
2018-12-21T03:40:05.665Z,0.70
2018-12-21T03:42:39.313Z,0.70
2018-12-21T03:45:10.557Z,1.00
2018-12-21T03:47:44.398Z,0.77
2018-12-21T03:50:18.369Z,0.63
2018-12-21T03:52:52.325Z,0.80
2018-12-21T03:55:25.480Z,0.50
2018-12-21T03:57:58.615Z,0.80
2018-12-21T04:00:32.629Z,0.90
2018-12-21T04:03:05.740Z,0.70
2018-12-21T04:05:39.748Z,0.60
2018-12-21T04:08:13.756Z,0.80
2018-12-21T04:10:46.966Z,0.80
2018-12-21T04:13:20.224Z,0.93
2018-12-21T04:15:53.428Z,0.87
2018-12-21T04:18:28.644Z,0.80
2018-12-21T04:21:02.585Z,0.70
2018-12-21T04:23:36.623Z,0.60
2018-12-21T04:26:10.652Z,0.60
2018-12-21T04:28:43.769Z,0.83
2018-12-21T04:31:16.904Z,0.50
2018-12-21T04:33:50.835Z,0.90
2018-12-21T04:36:24.852Z,0.63
2018-12-21T04:38:58.903Z,0.60
2018-12-21T04:41:32.858Z,0.67
2018-12-21T04:44:06.926Z,0.90
2018-12-21T04:46:41.028Z,0.63
2018-12-21T04:49:15.134Z,0.80
2018-12-21T04:51:49.146Z,0.60
2018-12-21T04:54:22.264Z,0.60
2018-12-21T04:56:56.138Z,0.80
2018-12-21T04:59:29.324Z,0.60
2018-12-21T05:02:03.432Z,0.70
2018-12-21T05:04:37.378Z,0.60
2018-12-21T05:07:12.522Z,0.50
2018-12-21T05:09:46.302Z,0.43
2018-12-21T05:12:19.580Z,0.73
2018-12-21T05:15:06.259Z,0.70
2018-12-21T05:17:39.715Z,0.80
2018-12-21T05:20:13.685Z,0.60
2018-12-21T05:22:52.173Z,0.40
2018-12-21T05:25:22.688Z,0.60
2018-12-21T05:27:55.935Z,0.60
2018-12-21T05:30:29.889Z,0.30
2018-12-21T05:33:03.953Z,0.40
2018-12-21T05:35:37.110Z,0.60
2018-12-21T05:38:10.238Z,0.30
2018-12-21T05:40:43.361Z,0.40
2018-12-21T05:43:16.478Z,0.40
2018-12-21T05:45:50.487Z,0.60
2018-12-21T05:48:23.703Z,0.53
2018-12-21T05:50:57.514Z,0.50
2018-12-21T05:53:30.832Z,0.40
2018-12-21T05:56:04.167Z,0.73
2018-12-21T05:58:38.175Z,0.63
2018-12-21T06:01:12.235Z,0.53
2018-12-21T06:03:46.091Z,0.57
2018-12-21T06:06:19.833Z,0.50
2018-12-21T06:08:53.738Z,0.60
2018-12-21T06:11:26.975Z,0.50
2018-12-21T06:14:01.139Z,0.70
2018-12-21T06:16:31.727Z,0.40
2018-12-21T06:19:05.676Z,0.60
2018-12-21T06:21:39.260Z,0.60
2018-12-21T06:24:13.054Z,0.60
2018-12-21T06:26:47.074Z,0.60
2018-12-21T06:29:20.621Z,0.60
2018-12-21T06:31:53.892Z,0.50
2018-12-21T06:34:27.923Z,0.70
2018-12-21T06:37:01.843Z,0.50
2018-12-21T06:39:34.986Z,0.50
2018-12-21T06:42:08.222Z,0.50
2018-12-21T06:44:42.128Z,0.47
2018-12-21T06:47:15.296Z,0.50
2018-12-21T06:49:49.235Z,0.40
2018-12-21T06:52:23.248Z,0.60
2018-12-21T06:54:57.196Z,0.80
2018-12-21T06:57:31.215Z,0.90
2018-12-21T07:00:07.184Z,0.60
2018-12-21T07:02:40.634Z,0.50
2018-12-21T07:05:14.430Z,0.50
2018-12-21T07:07:48.384Z,0.40
2018-12-21T07:10:22.303Z,0.30
2018-12-21T07:12:56.375Z,0.30
2018-12-21T07:15:29.478Z,0.30
2018-12-21T07:18:02.710Z,0.33
2018-12-21T07:20:36.719Z,0.30
2018-12-21T07:23:10.795Z,0.50
2018-12-21T07:25:44.736Z,0.30
2018-12-21T07:28:18.681Z,0.40
2018-12-21T07:30:51.779Z,0.63
2018-12-21T07:33:25.068Z,0.80
2018-12-21T07:36:08.091Z,0.30
2018-12-21T07:38:34.210Z,0.30
2018-12-21T07:41:07.326Z,0.37
2018-12-21T07:43:40.720Z,0.30
2018-12-21T07:46:13.935Z,0.37
2018-12-21T07:48:51.575Z,0.50
2018-12-21T07:51:25.337Z,0.40
2018-12-21T07:53:59.384Z,0.30
2018-12-21T07:56:32.608Z,0.40
2018-12-21T07:59:05.936Z,0.40
2018-12-21T08:01:39.980Z,0.20
2018-12-21T08:04:13.253Z,0.30
2018-12-21T08:06:46.402Z,0.50
2018-12-21T08:09:19.634Z,0.50
2018-12-21T08:11:53.697Z,0.50
2018-12-21T08:14:27.612Z,0.40
2018-12-21T08:17:00.765Z,0.50
2018-12-21T08:19:34.794Z,0.47
2018-12-21T08:22:08.778Z,0.70
2018-12-21T08:24:42.610Z,0.53
2018-12-21T08:27:16.624Z,2.40
2018-12-21T08:29:49.767Z,0.50
2018-12-21T08:32:23.795Z,0.30
2018-12-21T08:34:57.807Z,0.27
2018-12-21T08:37:30.917Z,0.20
2018-12-21T08:40:05.247Z,0.40
2018-12-21T08:45:13.211Z,0.50
2018-12-21T08:47:46.511Z,0.53
2018-12-21T08:50:19.671Z,0.57
2018-12-21T08:52:54.012Z,0.30
2018-12-21T08:55:27.648Z,0.30
2018-12-21T08:58:00.781Z,0.47
2018-12-21T09:00:34.842Z,0.30
2018-12-21T09:03:08.689Z,0.20
2018-12-21T09:05:42.260Z,0.20
2018-12-21T09:08:15.632Z,0.20
2018-12-21T09:10:49.588Z,0.20
2018-12-21T09:13:22.717Z,0.10
2018-12-21T09:15:56.745Z,0.20
2018-12-21T09:18:29.856Z,0.20
2018-12-21T09:21:03.963Z,0.20
2018-12-21T09:23:37.078Z,0.30
2018-12-21T09:26:10.201Z,0.47
2018-12-21T09:28:43.427Z,0.37
2018-12-21T09:31:17.443Z,0.27
2018-12-21T09:33:51.509Z,0.20
2018-12-21T09:36:24.747Z,0.27
2018-12-21T09:38:58.647Z,0.20
2018-12-21T09:41:32.621Z,0.37
2018-12-21T09:44:06.445Z,0.30
2018-12-21T09:46:40.457Z,0.20
2018-12-21T09:49:13.635Z,0.30
2018-12-21T09:51:46.849Z,0.20
2018-12-21T09:54:20.005Z,0.27
2018-12-21T09:56:53.254Z,0.30
2018-12-21T09:59:26.369Z,0.40
2018-12-21T10:02:00.404Z,0.27
2018-12-21T10:04:33.502Z,0.37
2018-12-21T10:07:13.661Z,0.37
2018-12-21T10:09:46.772Z,0.30
2018-12-21T10:12:20.844Z,0.37
2018-12-21T10:14:53.995Z,0.40
2018-12-21T10:17:27.148Z,0.20
2018-12-21T10:20:00.409Z,0.30
2018-12-21T10:22:33.547Z,0.30
2018-12-21T10:25:08.571Z,0.40
2018-12-21T10:27:42.649Z,0.33
2018-12-21T10:30:15.886Z,0.40
2018-12-21T10:32:49.946Z,0.30
2018-12-21T10:35:23.226Z,0.30
2018-12-21T10:37:57.288Z,0.30
2018-12-21T10:40:30.441Z,0.30
2018-12-21T10:43:03.603Z,0.30
2018-12-21T10:45:41.565Z,0.27
2018-12-21T10:48:12.155Z,0.20
2018-12-21T10:50:46.280Z,0.30
2018-12-21T10:53:20.504Z,0.30
2018-12-21T10:55:54.474Z,0.50
2018-12-21T10:58:28.572Z,0.30
2018-12-21T11:01:04.944Z,0.30
2018-12-21T11:03:43.744Z,0.53
2018-12-21T11:06:17.740Z,0.20
2018-12-21T11:08:51.846Z,0.20
2018-12-21T11:11:25.913Z,0.30
2018-12-21T11:14:00.176Z,1.00
2018-12-21T11:16:38.302Z,0.43
2018-12-21T11:19:12.562Z,0.27
2018-12-21T11:21:45.902Z,0.27
2018-12-21T11:24:19.195Z,0.20
2018-12-21T11:26:53.083Z,0.27
2018-12-21T11:29:27.187Z,0.50
2018-12-21T11:32:01.289Z,0.20
2018-12-21T11:34:35.276Z,0.30
2018-12-21T11:37:09.633Z,0.30
2018-12-21T11:39:44.425Z,0.40
2018-12-21T11:42:17.886Z,0.30
2018-12-21T11:44:51.949Z,0.50
2018-12-21T11:47:26.010Z,0.20
2018-12-21T11:49:59.135Z,0.30
2018-12-21T11:52:33.075Z,0.30
2018-12-21T12:15:10.113Z,0.30
2018-12-21T12:17:44.173Z,0.20
2018-12-21T12:20:18.217Z,0.40
2018-12-21T12:22:52.206Z,0.30
2018-12-21T12:25:25.574Z,0.10
2018-12-21T12:27:59.335Z,0.30
2018-12-21T12:30:32.468Z,0.20
2018-12-21T12:33:06.519Z,0.20
2018-12-21T12:35:40.491Z,0.30
2018-12-21T12:38:13.798Z,0.20
2018-12-21T12:40:48.624Z,0.20
2018-12-21T12:43:23.926Z,0.20
2018-12-21T12:45:57.760Z,0.20
2018-12-21T12:48:30.895Z,0.30
2018-12-21T12:51:07.326Z,0.27
2018-12-21T12:53:44.152Z,0.20
2018-12-21T12:56:18.238Z,0.30
2018-12-21T12:58:52.281Z,0.20
2018-12-21T13:01:26.287Z,0.20
2018-12-21T13:03:59.542Z,0.27
2018-12-21T13:06:37.693Z,0.30
2018-12-21T13:09:11.758Z,0.40
2018-12-21T13:11:45.845Z,0.30
2018-12-21T13:14:19.950Z,0.30
2018-12-21T13:16:54.323Z,0.30
2018-12-21T13:19:28.196Z,0.40
2018-12-21T13:22:02.272Z,0.30
2018-12-21T13:24:36.343Z,0.40
2018-12-21T13:27:09.484Z,0.20
2018-12-21T13:29:42.720Z,0.20
2018-12-21T13:32:16.730Z,0.10
2018-12-21T13:34:52.725Z,0.30
2018-12-21T13:37:26.725Z,0.40
2018-12-21T13:40:00.700Z,0.20
2018-12-21T13:42:34.650Z,0.30
2018-12-21T13:45:08.105Z,0.20
2018-12-21T13:47:44.124Z,0.20
2018-12-21T13:50:18.041Z,0.30
2018-12-21T13:52:52.087Z,0.20
2018-12-21T13:55:26.117Z,0.20
2018-12-21T13:57:59.854Z,0.30
2018-12-21T14:00:31.039Z,0.27
2018-12-21T14:03:04.676Z,0.20
2018-12-21T14:05:38.704Z,0.23
2018-12-21T14:08:12.577Z,0.20
2018-12-21T14:10:46.624Z,0.40
2018-12-21T14:13:20.581Z,0.20
2018-12-21T14:15:54.521Z,0.30
2018-12-21T14:18:27.688Z,0.30
2018-12-21T14:21:01.630Z,0.20
2018-12-21T14:23:35.750Z,0.30
2018-12-21T14:26:08.873Z,0.30
2018-12-21T14:28:42.656Z,0.30
2018-12-21T14:31:16.070Z,0.30
2018-12-21T14:33:50.024Z,0.30
2018-12-21T14:36:24.101Z,0.20
2018-12-21T14:38:57.906Z,0.20
2018-12-21T14:41:31.030Z,0.20
2018-12-21T14:44:04.225Z,0.20
2018-12-21T14:46:38.332Z,0.20
2018-12-21T14:49:11.637Z,0.20
2018-12-21T14:51:45.555Z,0.30
2018-12-21T14:54:18.714Z,0.10
2018-12-21T14:56:51.947Z,0.20
2018-12-21T14:59:25.546Z,0.20
2018-12-21T15:01:59.286Z,0.20
2018-12-21T15:04:32.416Z,0.20
2018-12-21T15:07:06.380Z,0.20
2018-12-21T15:09:40.424Z,0.20
2018-12-21T15:12:15.709Z,0.20
2018-12-21T15:14:49.289Z,0.20
2018-12-21T15:17:23.333Z,0.30
2018-12-21T15:19:56.451Z,0.20
2018-12-21T15:22:29.598Z,0.27
2018-12-21T15:25:04.819Z,0.30
2018-12-21T15:27:38.814Z,0.23
2018-12-21T15:30:12.226Z,0.20
2018-12-21T15:32:45.985Z,0.20
2018-12-21T15:35:20.065Z,0.20
2018-12-21T15:37:53.249Z,0.20
2018-12-21T15:40:27.337Z,0.20
2018-12-21T15:43:01.273Z,0.20
2018-12-21T15:45:35.268Z,0.30
2018-12-21T15:48:09.332Z,0.10
2018-12-21T15:50:43.171Z,0.20
2018-12-21T15:53:18.970Z,0.40
2018-12-21T15:55:54.825Z,0.20
2018-12-21T15:58:27.311Z,0.20
2018-12-21T16:01:01.241Z,0.20
2018-12-21T16:03:34.477Z,0.20
2018-12-21T16:06:08.542Z,0.20
2018-12-21T16:08:41.694Z,0.10
2018-12-21T16:11:15.736Z,0.20
2018-12-21T16:13:49.011Z,0.10
2018-12-21T16:16:22.270Z,0.20
2018-12-21T16:18:55.381Z,0.33
2018-12-21T16:21:29.473Z,0.20
2018-12-21T16:24:06.970Z,0.30
2018-12-21T16:26:38.730Z,0.20
2018-12-21T16:29:12.799Z,0.20
2018-12-21T16:31:45.968Z,0.20
2018-12-21T16:34:19.148Z,0.10
2018-12-21T16:36:53.218Z,0.10
2018-12-21T16:39:27.174Z,0.20
2018-12-21T16:42:00.432Z,0.13
2018-12-21T16:44:34.489Z,0.20
2018-12-21T16:47:08.502Z,0.20
2018-12-21T16:49:41.641Z,0.20
2018-12-21T16:52:15.801Z,0.20
2018-12-21T16:54:49.988Z,0.17
2018-12-21T16:57:24.014Z,0.30
2018-12-21T16:59:58.045Z,0.30
2018-12-21T17:02:32.213Z,0.20
2018-12-21T17:05:05.989Z,0.23
2018-12-21T17:07:39.322Z,0.20
2018-12-21T17:10:13.403Z,0.30
2018-12-21T17:12:47.446Z,0.30
2018-12-21T17:15:21.469Z,0.20
2018-12-21T17:17:55.531Z,0.20
2018-12-21T17:20:29.606Z,0.20
2018-12-21T17:23:03.627Z,0.30
2018-12-21T17:25:37.464Z,0.30
2018-12-21T17:28:11.393Z,0.37
2018-12-21T17:30:45.496Z,0.30
2018-12-21T17:33:19.509Z,0.20
2018-12-21T17:35:53.606Z,0.30
2018-12-21T17:38:27.635Z,0.30
2018-12-21T17:41:00.876Z,0.20
2018-12-21T17:43:34.805Z,0.30
2018-12-21T17:46:08.119Z,0.23
2018-12-21T17:48:41.261Z,0.20
2018-12-21T17:51:15.334Z,0.30
2018-12-21T17:53:48.541Z,0.33
2018-12-21T17:56:29.866Z,0.20
2018-12-21T17:58:57.945Z,0.20
2018-12-21T18:01:31.171Z,0.20
2018-12-21T18:04:05.251Z,0.30
2018-12-21T18:06:38.959Z,0.30
2018-12-21T18:09:12.884Z,0.47
2018-12-21T18:11:47.834Z,0.37
2018-12-21T18:14:21.194Z,0.30
2018-12-21T18:16:55.149Z,0.30
2018-12-21T18:19:28.536Z,0.30
2018-12-21T18:22:02.766Z,0.30
2018-12-21T18:24:36.617Z,0.30
2018-12-21T18:27:09.742Z,0.17
2018-12-21T18:29:43.845Z,0.20
2018-12-21T18:32:17.952Z,0.27
2018-12-21T18:34:51.878Z,0.30
2018-12-21T18:37:25.989Z,0.30
2018-12-21T18:39:59.874Z,0.30
2018-12-21T18:42:33.602Z,0.30
2018-12-21T18:45:07.670Z,0.27
2018-12-21T18:47:41.663Z,0.20
2018-12-21T18:50:15.518Z,0.33
2018-12-21T18:52:49.530Z,0.30
2018-12-21T18:55:22.769Z,0.30
2018-12-21T19:00:30.557Z,0.30
2018-12-21T19:03:03.739Z,0.30
2018-12-21T19:05:37.781Z,0.37
2018-12-21T19:08:11.023Z,0.20
2018-12-21T19:10:44.250Z,0.30
2018-12-21T19:13:18.273Z,0.33
2018-12-21T19:15:52.242Z,0.30
2018-12-21T19:18:25.357Z,0.30
2018-12-21T19:20:56.417Z,0.30
2018-12-21T19:23:30.278Z,0.40
2018-12-21T19:26:03.581Z,0.30
2018-12-21T19:28:37.622Z,0.30
2018-12-21T19:31:11.031Z,0.20
2018-12-21T19:33:44.765Z,0.20
2018-12-21T19:36:18.754Z,0.30
2018-12-21T19:38:52.752Z,0.20
2018-12-21T19:41:26.059Z,0.30
2018-12-21T19:43:59.931Z,0.40
2018-12-21T19:46:33.057Z,0.30
2018-12-21T19:49:06.216Z,0.30
2018-12-21T19:51:40.274Z,0.47
2018-12-21T19:54:14.266Z,0.30
2018-12-21T19:56:49.141Z,0.33
2018-12-21T19:59:22.294Z,0.20
2018-12-21T20:01:55.508Z,0.30
2018-12-21T20:04:29.458Z,0.50
2018-12-21T20:07:03.650Z,0.40
2018-12-21T20:09:37.773Z,0.30
2018-12-21T20:12:11.773Z,0.27
2018-12-21T20:14:45.845Z,0.20
2018-12-21T20:17:19.813Z,0.37
2018-12-21T20:19:53.904Z,0.23
2018-12-21T20:22:30.921Z,0.37
2018-12-21T20:25:04.833Z,0.30
2018-12-21T20:27:38.171Z,0.23
2018-12-21T20:30:12.954Z,0.33
2018-12-21T20:32:46.125Z,0.30
2018-12-21T20:35:19.265Z,0.23
2018-12-21T20:37:52.781Z,0.30
2018-12-21T20:40:26.610Z,0.20
2018-12-21T20:42:59.737Z,0.30
2018-12-21T20:45:33.782Z,0.30
2018-12-21T20:48:07.798Z,0.40
2018-12-21T20:50:40.921Z,0.20
2018-12-21T20:53:14.847Z,0.20
2018-12-21T20:55:48.826Z,0.33
2018-12-21T20:58:24.071Z,0.40
2018-12-21T21:00:57.587Z,0.30
2018-12-21T21:03:30.808Z,0.30
2018-12-21T21:06:03.982Z,0.30
2018-12-21T21:08:38.057Z,0.30
2018-12-21T21:11:12.090Z,0.40
2018-12-21T21:13:45.370Z,0.47
2018-12-21T21:16:18.825Z,0.30
2018-12-21T21:18:52.847Z,0.33
2018-12-21T21:21:26.921Z,0.40
2018-12-21T21:24:01.011Z,0.30
2018-12-21T21:26:35.095Z,0.20
2018-12-21T21:29:08.932Z,0.50
2018-12-21T21:31:43.014Z,0.30
2018-12-21T21:34:16.209Z,0.37
2018-12-21T21:36:50.189Z,0.37
2018-12-21T21:39:24.228Z,0.40
2018-12-21T21:41:58.249Z,0.30
2018-12-21T21:44:32.193Z,0.30
2018-12-21T21:47:06.270Z,0.33
2018-12-21T21:49:40.192Z,0.40
2018-12-21T21:52:13.344Z,0.50
2018-12-21T21:54:46.606Z,0.60
2018-12-21T21:57:19.862Z,0.50
2018-12-21T21:59:53.097Z,0.50
2018-12-21T22:02:27.125Z,0.40
2018-12-21T22:05:00.381Z,0.30
2018-12-21T22:07:33.567Z,0.30
2018-12-21T22:10:07.426Z,0.40
2018-12-21T22:12:40.794Z,0.30
2018-12-21T22:15:14.678Z,0.30
2018-12-21T22:17:48.551Z,0.40
2018-12-21T22:20:22.606Z,0.40
2018-12-21T22:22:56.025Z,0.40
2018-12-21T22:25:30.270Z,0.40
2018-12-21T22:28:03.718Z,0.40
2018-12-21T22:30:37.294Z,0.40
2018-12-21T22:33:10.558Z,0.30
2018-12-21T22:35:43.914Z,0.40
2018-12-21T22:38:17.871Z,0.30
2018-12-21T22:40:51.837Z,0.40
2018-12-21T22:43:25.781Z,0.40
2018-12-21T22:45:59.725Z,0.33
2018-12-21T22:48:33.753Z,0.40
2018-12-21T22:51:07.762Z,0.30
2018-12-21T22:53:41.009Z,0.40
2018-12-21T22:56:14.989Z,0.37
2018-12-21T22:58:49.076Z,0.37
2018-12-21T23:01:22.278Z,0.30
2018-12-21T23:03:56.422Z,0.33
2018-12-21T23:06:30.461Z,0.40
2018-12-21T23:09:05.083Z,0.30
2018-12-21T23:11:38.508Z,0.40
2018-12-21T23:14:12.642Z,0.30
2018-12-21T23:16:48.892Z,0.50
2018-12-21T23:19:22.773Z,0.33
2018-12-21T23:21:56.796Z,0.30
2018-12-21T23:24:29.951Z,0.30
2018-12-21T23:27:03.101Z,0.30
2018-12-21T23:29:37.041Z,0.30
2018-12-21T23:32:10.867Z,0.20
2018-12-21T23:34:44.083Z,0.20
2018-12-21T23:37:18.098Z,0.30
2018-12-21T23:39:51.928Z,0.40
2018-12-21T23:42:25.944Z,0.27
2018-12-21T23:44:59.948Z,0.30
2018-12-21T23:47:33.866Z,0.33
2018-12-21T23:50:07.040Z,0.50
2018-12-21T23:52:40.193Z,0.40
2018-12-21T23:55:14.194Z,0.37
2018-12-21T23:57:48.169Z,0.20
